sensor_id;sensor_type;location;lat;lon;timestamp;P1;durP1;ratioP1;P2;durP2;ratioP2
36355;SDS011;22384;54.302;18.596;2022-11-20T00:01:34;43.10;;;22.35;;
36355;SDS011;22384;54.302;18.596;2022-11-20T00:04:00;41.70;;;21.27;;
36355;SDS011;22384;54.302;18.596;2022-11-20T00:06:27;45.45;;;22.58;;
36355;SDS011;22384;54.302;18.596;2022-11-20T00:08:54;41.72;;;20.88;;
36355;SDS011;22384;54.302;18.596;2022-11-20T00:11:21;46.22;;;21.95;;
36355;SDS011;22384;54.302;18.596;2022-11-20T00:13:48;43.00;;;21.30;;
36355;SDS011;22384;54.302;18.596;2022-11-20T00:16:15;41.50;;;20.30;;
36355;SDS011;22384;54.302;18.596;2022-11-20T00:18:42;43.13;;;21.98;;
36355;SDS011;22384;54.302;18.596;2022-11-20T00:21:15;47.13;;;22.67;;
36355;SDS011;22384;54.302;18.596;2022-11-20T00:23:42;49.85;;;23.67;;
36355;SDS011;22384;54.302;18.596;2022-11-20T00:26:09;42.20;;;22.02;;
36355;SDS011;22384;54.302;18.596;2022-11-20T00:28:36;48.85;;;23.58;;
36355;SDS011;22384;54.302;18.596;2022-11-20T00:31:09;50.22;;;23.30;;
36355;SDS011;22384;54.302;18.596;2022-11-20T00:33:36;38.75;;;20.63;;
36355;SDS011;22384;54.302;18.596;2022-11-20T00:36:06;51.05;;;25.48;;
36355;SDS011;22384;54.302;18.596;2022-11-20T00:38:32;60.78;;;26.92;;
36355;SDS011;22384;54.302;18.596;2022-11-20T00:41:00;62.40;;;27.23;;
36355;SDS011;22384;54.302;18.596;2022-11-20T00:43:26;46.38;;;22.95;;
36355;SDS011;22384;54.302;18.596;2022-11-20T00:45:56;40.92;;;21.48;;
36355;SDS011;22384;54.302;18.596;2022-11-20T00:48:23;47.38;;;22.00;;
36355;SDS011;22384;54.302;18.596;2022-11-20T00:50:49;40.78;;;22.13;;
36355;SDS011;22384;54.302;18.596;2022-11-20T00:53:15;41.03;;;20.58;;
36355;SDS011;22384;54.302;18.596;2022-11-20T00:55:41;45.47;;;21.15;;
36355;SDS011;22384;54.302;18.596;2022-11-20T00:58:08;42.28;;;21.08;;
36355;SDS011;22384;54.302;18.596;2022-11-20T01:00:34;43.42;;;21.77;;
36355;SDS011;22384;54.302;18.596;2022-11-20T01:03:00;42.95;;;22.05;;
36355;SDS011;22384;54.302;18.596;2022-11-20T01:05:26;47.97;;;24.05;;
36355;SDS011;22384;54.302;18.596;2022-11-20T01:07:53;54.20;;;24.67;;
36355;SDS011;22384;54.302;18.596;2022-11-20T01:10:19;56.15;;;25.10;;
36355;SDS011;22384;54.302;18.596;2022-11-20T01:12:45;42.85;;;20.52;;
36355;SDS011;22384;54.302;18.596;2022-11-20T01:15:33;42.80;;;19.70;;
36355;SDS011;22384;54.302;18.596;2022-11-20T01:17:59;38.28;;;19.42;;
36355;SDS011;22384;54.302;18.596;2022-11-20T01:20:25;42.60;;;20.17;;
36355;SDS011;22384;54.302;18.596;2022-11-20T01:22:51;38.72;;;19.17;;
36355;SDS011;22384;54.302;18.596;2022-11-20T01:25:17;38.90;;;18.65;;
36355;SDS011;22384;54.302;18.596;2022-11-20T01:27:44;37.03;;;18.40;;
36355;SDS011;22384;54.302;18.596;2022-11-20T01:30:10;39.42;;;20.35;;
36355;SDS011;22384;54.302;18.596;2022-11-20T01:32:36;35.65;;;18.45;;
36355;SDS011;22384;54.302;18.596;2022-11-20T01:35:02;33.85;;;18.33;;
36355;SDS011;22384;54.302;18.596;2022-11-20T01:37:29;32.67;;;18.63;;
36355;SDS011;22384;54.302;18.596;2022-11-20T01:39:55;34.22;;;17.90;;
36355;SDS011;22384;54.302;18.596;2022-11-20T01:42:21;38.35;;;19.35;;
36355;SDS011;22384;54.302;18.596;2022-11-20T01:47:53;33.53;;;17.90;;
36355;SDS011;22384;54.302;18.596;2022-11-20T01:50:22;36.58;;;18.45;;
36355;SDS011;22384;54.302;18.596;2022-11-20T01:52:54;44.43;;;18.73;;
36355;SDS011;22384;54.302;18.596;2022-11-20T01:55:22;42.90;;;21.27;;
36355;SDS011;22384;54.302;18.596;2022-11-20T01:57:49;41.88;;;20.63;;
36355;SDS011;22384;54.302;18.596;2022-11-20T02:00:16;44.53;;;20.30;;
36355;SDS011;22384;54.302;18.596;2022-11-20T02:02:44;40.47;;;21.00;;
36355;SDS011;22384;54.302;18.596;2022-11-20T02:05:22;42.78;;;20.65;;
36355;SDS011;22384;54.302;18.596;2022-11-20T02:07:49;41.72;;;20.13;;
36355;SDS011;22384;54.302;18.596;2022-11-20T02:10:16;35.97;;;17.88;;
36355;SDS011;22384;54.302;18.596;2022-11-20T02:12:42;40.35;;;20.17;;
36355;SDS011;22384;54.302;18.596;2022-11-20T02:15:27;42.17;;;19.90;;
36355;SDS011;22384;54.302;18.596;2022-11-20T02:17:53;37.75;;;19.70;;
36355;SDS011;22384;54.302;18.596;2022-11-20T02:20:20;36.65;;;17.20;;
36355;SDS011;22384;54.302;18.596;2022-11-20T02:25:35;42.33;;;19.48;;
36355;SDS011;22384;54.302;18.596;2022-11-20T02:28:02;47.53;;;21.02;;
36355;SDS011;22384;54.302;18.596;2022-11-20T02:30:29;46.83;;;20.38;;
36355;SDS011;22384;54.302;18.596;2022-11-20T02:32:55;51.50;;;21.38;;
36355;SDS011;22384;54.302;18.596;2022-11-20T02:37:53;46.13;;;19.80;;
36355;SDS011;22384;54.302;18.596;2022-11-20T02:40:19;46.60;;;20.83;;
36355;SDS011;22384;54.302;18.596;2022-11-20T02:42:46;42.03;;;20.48;;
36355;SDS011;22384;54.302;18.596;2022-11-20T02:45:12;45.97;;;20.65;;
36355;SDS011;22384;54.302;18.596;2022-11-20T02:47:38;48.75;;;20.58;;
36355;SDS011;22384;54.302;18.596;2022-11-20T02:50:04;44.85;;;20.00;;
36355;SDS011;22384;54.302;18.596;2022-11-20T02:52:31;43.80;;;20.42;;
36355;SDS011;22384;54.302;18.596;2022-11-20T02:54:57;44.70;;;20.48;;
36355;SDS011;22384;54.302;18.596;2022-11-20T02:57:23;42.00;;;20.60;;
36355;SDS011;22384;54.302;18.596;2022-11-20T02:59:50;40.85;;;21.50;;
36355;SDS011;22384;54.302;18.596;2022-11-20T03:02:16;42.72;;;20.50;;
36355;SDS011;22384;54.302;18.596;2022-11-20T03:04:42;43.95;;;20.65;;
36355;SDS011;22384;54.302;18.596;2022-11-20T03:07:08;42.50;;;21.60;;
36355;SDS011;22384;54.302;18.596;2022-11-20T03:09:35;41.28;;;19.95;;
36355;SDS011;22384;54.302;18.596;2022-11-20T03:12:01;40.00;;;20.15;;
36355;SDS011;22384;54.302;18.596;2022-11-20T03:14:28;41.45;;;19.70;;
36355;SDS011;22384;54.302;18.596;2022-11-20T03:16:54;37.33;;;19.20;;
36355;SDS011;22384;54.302;18.596;2022-11-20T03:19:21;42.33;;;19.35;;
36355;SDS011;22384;54.302;18.596;2022-11-20T03:21:47;38.00;;;20.25;;
36355;SDS011;22384;54.302;18.596;2022-11-20T03:24:13;37.67;;;19.77;;
36355;SDS011;22384;54.302;18.596;2022-11-20T03:26:39;41.30;;;20.45;;
36355;SDS011;22384;54.302;18.596;2022-11-20T03:29:05;42.47;;;20.85;;
36355;SDS011;22384;54.302;18.596;2022-11-20T03:31:36;43.83;;;21.20;;
36355;SDS011;22384;54.302;18.596;2022-11-20T03:34:03;40.90;;;20.15;;
36355;SDS011;22384;54.302;18.596;2022-11-20T03:36:29;39.13;;;20.63;;
36355;SDS011;22384;54.302;18.596;2022-11-20T03:38:56;44.67;;;20.83;;
36355;SDS011;22384;54.302;18.596;2022-11-20T03:41:23;48.53;;;21.67;;
36355;SDS011;22384;54.302;18.596;2022-11-20T03:44:00;42.20;;;20.58;;
36355;SDS011;22384;54.302;18.596;2022-11-20T03:46:27;41.28;;;21.33;;
36355;SDS011;22384;54.302;18.596;2022-11-20T03:48:53;45.60;;;20.48;;
36355;SDS011;22384;54.302;18.596;2022-11-20T03:51:23;42.13;;;19.33;;
36355;SDS011;22384;54.302;18.596;2022-11-20T03:53:50;44.90;;;20.40;;
36355;SDS011;22384;54.302;18.596;2022-11-20T03:56:18;42.38;;;21.08;;
36355;SDS011;22384;54.302;18.596;2022-11-20T03:58:44;42.80;;;20.55;;
36355;SDS011;22384;54.302;18.596;2022-11-20T04:01:12;44.20;;;19.63;;
36355;SDS011;22384;54.302;18.596;2022-11-20T04:03:39;37.00;;;18.67;;
36355;SDS011;22384;54.302;18.596;2022-11-20T04:06:06;38.92;;;19.10;;
36355;SDS011;22384;54.302;18.596;2022-11-20T04:08:33;39.28;;;19.85;;
36355;SDS011;22384;54.302;18.596;2022-11-20T04:11:12;37.83;;;20.00;;
36355;SDS011;22384;54.302;18.596;2022-11-20T04:13:39;41.75;;;19.90;;
36355;SDS011;22384;54.302;18.596;2022-11-20T04:16:05;46.58;;;21.10;;
36355;SDS011;22384;54.302;18.596;2022-11-20T04:18:32;38.17;;;18.60;;
36355;SDS011;22384;54.302;18.596;2022-11-20T04:20:59;39.63;;;20.58;;
36355;SDS011;22384;54.302;18.596;2022-11-20T04:23:25;44.53;;;21.90;;
36355;SDS011;22384;54.302;18.596;2022-11-20T04:25:51;38.55;;;20.42;;
36355;SDS011;22384;54.302;18.596;2022-11-20T04:28:18;44.63;;;20.67;;
36355;SDS011;22384;54.302;18.596;2022-11-20T04:30:44;39.72;;;19.38;;
36355;SDS011;22384;54.302;18.596;2022-11-20T04:33:10;47.85;;;21.20;;
36355;SDS011;22384;54.302;18.596;2022-11-20T04:35:37;43.90;;;21.13;;
36355;SDS011;22384;54.302;18.596;2022-11-20T04:38:03;48.53;;;22.67;;
36355;SDS011;22384;54.302;18.596;2022-11-20T04:40:30;49.72;;;23.35;;
36355;SDS011;22384;54.302;18.596;2022-11-20T04:42:56;43.00;;;23.38;;
36355;SDS011;22384;54.302;18.596;2022-11-20T04:45:23;42.05;;;21.20;;
36355;SDS011;22384;54.302;18.596;2022-11-20T04:47:49;45.80;;;20.65;;
36355;SDS011;22384;54.302;18.596;2022-11-20T04:50:15;45.65;;;20.48;;
36355;SDS011;22384;54.302;18.596;2022-11-20T04:52:41;52.20;;;22.70;;
36355;SDS011;22384;54.302;18.596;2022-11-20T04:55:07;57.08;;;28.95;;
36355;SDS011;22384;54.302;18.596;2022-11-20T04:57:34;156.88;;;87.63;;
36355;SDS011;22384;54.302;18.596;2022-11-20T05:00:00;140.23;;;78.93;;
36355;SDS011;22384;54.302;18.596;2022-11-20T05:02:26;95.22;;;53.35;;
36355;SDS011;22384;54.302;18.596;2022-11-20T05:04:52;68.68;;;34.50;;
36355;SDS011;22384;54.302;18.596;2022-11-20T05:07:19;50.10;;;27.17;;
36355;SDS011;22384;54.302;18.596;2022-11-20T05:09:45;56.97;;;27.75;;
36355;SDS011;22384;54.302;18.596;2022-11-20T05:12:11;70.03;;;37.00;;
36355;SDS011;22384;54.302;18.596;2022-11-20T05:14:37;52.55;;;26.85;;
36355;SDS011;22384;54.302;18.596;2022-11-20T05:17:03;49.40;;;23.90;;
36355;SDS011;22384;54.302;18.596;2022-11-20T05:19:30;49.95;;;22.58;;
36355;SDS011;22384;54.302;18.596;2022-11-20T05:21:56;42.85;;;20.73;;
36355;SDS011;22384;54.302;18.596;2022-11-20T05:24:22;40.33;;;19.90;;
36355;SDS011;22384;54.302;18.596;2022-11-20T05:26:48;45.70;;;19.88;;
36355;SDS011;22384;54.302;18.596;2022-11-20T05:29:15;41.58;;;20.52;;
36355;SDS011;22384;54.302;18.596;2022-11-20T05:31:41;44.05;;;20.80;;
36355;SDS011;22384;54.302;18.596;2022-11-20T05:34:07;45.95;;;19.92;;
36355;SDS011;22384;54.302;18.596;2022-11-20T05:36:34;48.40;;;21.42;;
36355;SDS011;22384;54.302;18.596;2022-11-20T05:39:00;42.05;;;20.80;;
36355;SDS011;22384;54.302;18.596;2022-11-20T05:41:26;43.83;;;20.70;;
36355;SDS011;22384;54.302;18.596;2022-11-20T05:43:52;44.92;;;19.50;;
36355;SDS011;22384;54.302;18.596;2022-11-20T05:46:19;45.88;;;20.65;;
36355;SDS011;22384;54.302;18.596;2022-11-20T05:48:46;43.55;;;21.15;;
36355;SDS011;22384;54.302;18.596;2022-11-20T05:51:13;49.85;;;22.73;;
36355;SDS011;22384;54.302;18.596;2022-11-20T05:53:40;45.50;;;19.60;;
36355;SDS011;22384;54.302;18.596;2022-11-20T05:56:07;47.03;;;21.17;;
36355;SDS011;22384;54.302;18.596;2022-11-20T05:58:35;49.55;;;21.20;;
36355;SDS011;22384;54.302;18.596;2022-11-20T06:01:05;48.80;;;22.13;;
36355;SDS011;22384;54.302;18.596;2022-11-20T06:03:31;44.15;;;20.63;;
36355;SDS011;22384;54.302;18.596;2022-11-20T06:06:01;48.58;;;21.65;;
36355;SDS011;22384;54.302;18.596;2022-11-20T06:08:27;50.05;;;21.98;;
36355;SDS011;22384;54.302;18.596;2022-11-20T06:10:53;53.67;;;23.85;;
36355;SDS011;22384;54.302;18.596;2022-11-20T06:13:20;178.43;;;64.95;;
36355;SDS011;22384;54.302;18.596;2022-11-20T06:15:49;250.15;;;98.18;;
36355;SDS011;22384;54.302;18.596;2022-11-20T06:18:19;109.72;;;46.60;;
36355;SDS011;22384;54.302;18.596;2022-11-20T06:20:45;200.88;;;55.60;;
36355;SDS011;22384;54.302;18.596;2022-11-20T06:23:12;75.38;;;30.70;;
36355;SDS011;22384;54.302;18.596;2022-11-20T06:25:39;70.15;;;26.95;;
36355;SDS011;22384;54.302;18.596;2022-11-20T06:28:05;82.75;;;28.55;;
36355;SDS011;22384;54.302;18.596;2022-11-20T06:30:31;764.58;;;248.52;;
36355;SDS011;22384;54.302;18.596;2022-11-20T06:32:57;758.38;;;283.65;;
36355;SDS011;22384;54.302;18.596;2022-11-20T06:35:24;169.75;;;71.47;;
36355;SDS011;22384;54.302;18.596;2022-11-20T06:37:50;87.28;;;38.13;;
36355;SDS011;22384;54.302;18.596;2022-11-20T06:40:17;73.63;;;31.13;;
36355;SDS011;22384;54.302;18.596;2022-11-20T06:42:43;100.40;;;37.40;;
36355;SDS011;22384;54.302;18.596;2022-11-20T06:45:10;80.70;;;31.50;;
36355;SDS011;22384;54.302;18.596;2022-11-20T06:47:36;68.80;;;27.00;;
36355;SDS011;22384;54.302;18.596;2022-11-20T06:50:02;70.55;;;26.25;;
36355;SDS011;22384;54.302;18.596;2022-11-20T06:52:29;64.35;;;25.15;;
36355;SDS011;22384;54.302;18.596;2022-11-20T06:54:55;62.10;;;24.63;;
36355;SDS011;22384;54.302;18.596;2022-11-20T06:57:21;56.88;;;24.48;;
36355;SDS011;22384;54.302;18.596;2022-11-20T06:59:47;146.45;;;41.58;;
36355;SDS011;22384;54.302;18.596;2022-11-20T07:02:13;151.50;;;43.03;;
36355;SDS011;22384;54.302;18.596;2022-11-20T07:04:40;120.85;;;38.15;;
36355;SDS011;22384;54.302;18.596;2022-11-20T07:07:06;147.02;;;54.55;;
36355;SDS011;22384;54.302;18.596;2022-11-20T07:09:32;104.10;;;42.92;;
36355;SDS011;22384;54.302;18.596;2022-11-20T07:11:59;72.43;;;35.38;;
36355;SDS011;22384;54.302;18.596;2022-11-20T07:14:25;82.65;;;34.28;;
36355;SDS011;22384;54.302;18.596;2022-11-20T07:16:51;76.13;;;33.97;;
36355;SDS011;22384;54.302;18.596;2022-11-20T07:19:21;112.68;;;39.03;;
36355;SDS011;22384;54.302;18.596;2022-11-20T07:21:47;96.80;;;36.47;;
36355;SDS011;22384;54.302;18.596;2022-11-20T07:24:13;137.48;;;42.17;;
36355;SDS011;22384;54.302;18.596;2022-11-20T07:26:39;98.97;;;36.53;;
36355;SDS011;22384;54.302;18.596;2022-11-20T07:29:05;67.70;;;29.10;;
36355;SDS011;22384;54.302;18.596;2022-11-20T07:31:32;114.20;;;38.28;;
36355;SDS011;22384;54.302;18.596;2022-11-20T07:33:58;65.05;;;28.70;;
36355;SDS011;22384;54.302;18.596;2022-11-20T07:36:24;64.35;;;28.05;;
36355;SDS011;22384;54.302;18.596;2022-11-20T07:38:50;76.10;;;27.83;;
36355;SDS011;22384;54.302;18.596;2022-11-20T07:41:16;63.88;;;28.02;;
36355;SDS011;22384;54.302;18.596;2022-11-20T07:43:43;69.38;;;29.88;;
36355;SDS011;22384;54.302;18.596;2022-11-20T07:46:09;97.78;;;41.78;;
36355;SDS011;22384;54.302;18.596;2022-11-20T07:48:35;78.20;;;34.80;;
36355;SDS011;22384;54.302;18.596;2022-11-20T07:51:01;74.22;;;31.25;;
36355;SDS011;22384;54.302;18.596;2022-11-20T07:53:28;74.47;;;30.58;;
36355;SDS011;22384;54.302;18.596;2022-11-20T07:55:54;73.32;;;30.23;;
36355;SDS011;22384;54.302;18.596;2022-11-20T07:58:20;69.85;;;30.27;;
36355;SDS011;22384;54.302;18.596;2022-11-20T08:00:46;81.45;;;32.38;;
36355;SDS011;22384;54.302;18.596;2022-11-20T08:03:13;80.25;;;32.00;;
36355;SDS011;22384;54.302;18.596;2022-11-20T08:05:39;73.68;;;31.75;;
36355;SDS011;22384;54.302;18.596;2022-11-20T08:08:05;69.10;;;28.58;;
36355;SDS011;22384;54.302;18.596;2022-11-20T08:10:32;77.50;;;31.75;;
36355;SDS011;22384;54.302;18.596;2022-11-20T08:12:59;67.88;;;29.33;;
36355;SDS011;22384;54.302;18.596;2022-11-20T08:15:47;96.82;;;35.15;;
36355;SDS011;22384;54.302;18.596;2022-11-20T08:18:14;72.25;;;32.33;;
36355;SDS011;22384;54.302;18.596;2022-11-20T08:20:42;76.15;;;32.03;;
36355;SDS011;22384;54.302;18.596;2022-11-20T08:23:09;113.05;;;37.88;;
36355;SDS011;22384;54.302;18.596;2022-11-20T08:25:36;146.98;;;46.85;;
36355;SDS011;22384;54.302;18.596;2022-11-20T08:28:07;94.18;;;33.92;;
36355;SDS011;22384;54.302;18.596;2022-11-20T08:30:33;160.60;;;50.00;;
36355;SDS011;22384;54.302;18.596;2022-11-20T08:33:04;130.25;;;44.20;;
36355;SDS011;22384;54.302;18.596;2022-11-20T08:35:35;146.50;;;47.67;;
36355;SDS011;22384;54.302;18.596;2022-11-20T08:38:02;90.50;;;35.33;;
36355;SDS011;22384;54.302;18.596;2022-11-20T08:40:31;98.95;;;35.65;;
36355;SDS011;22384;54.302;18.596;2022-11-20T08:42:58;97.43;;;35.35;;
36355;SDS011;22384;54.302;18.596;2022-11-20T08:45:24;128.60;;;48.47;;
36355;SDS011;22384;54.302;18.596;2022-11-20T08:47:50;120.68;;;48.05;;
36355;SDS011;22384;54.302;18.596;2022-11-20T08:50:17;99.50;;;39.67;;
36355;SDS011;22384;54.302;18.596;2022-11-20T08:52:44;69.72;;;32.63;;
36355;SDS011;22384;54.302;18.596;2022-11-20T08:55:14;79.40;;;33.38;;
36355;SDS011;22384;54.302;18.596;2022-11-20T08:57:40;69.63;;;32.67;;
36355;SDS011;22384;54.302;18.596;2022-11-20T09:00:06;80.65;;;36.45;;
36355;SDS011;22384;54.302;18.596;2022-11-20T09:02:33;68.30;;;31.20;;
36355;SDS011;22384;54.302;18.596;2022-11-20T09:04:59;58.88;;;29.15;;
36355;SDS011;22384;54.302;18.596;2022-11-20T09:07:27;67.35;;;30.70;;
36355;SDS011;22384;54.302;18.596;2022-11-20T09:09:54;70.78;;;30.80;;
36355;SDS011;22384;54.302;18.596;2022-11-20T09:12:21;83.15;;;37.42;;
36355;SDS011;22384;54.302;18.596;2022-11-20T09:14:47;78.57;;;35.65;;
36355;SDS011;22384;54.302;18.596;2022-11-20T09:17:15;68.53;;;31.77;;
36355;SDS011;22384;54.302;18.596;2022-11-20T09:19:42;93.45;;;44.53;;
36355;SDS011;22384;54.302;18.596;2022-11-20T09:22:08;86.25;;;40.88;;
36355;SDS011;22384;54.302;18.596;2022-11-20T09:24:34;83.10;;;39.08;;
36355;SDS011;22384;54.302;18.596;2022-11-20T09:27:04;74.28;;;33.75;;
36355;SDS011;22384;54.302;18.596;2022-11-20T09:29:30;100.03;;;43.20;;
36355;SDS011;22384;54.302;18.596;2022-11-20T09:31:56;89.35;;;42.38;;
36355;SDS011;22384;54.302;18.596;2022-11-20T09:34:22;74.80;;;34.50;;
36355;SDS011;22384;54.302;18.596;2022-11-20T09:36:49;82.25;;;34.47;;
36355;SDS011;22384;54.302;18.596;2022-11-20T09:39:15;86.45;;;34.83;;
36355;SDS011;22384;54.302;18.596;2022-11-20T09:49:52;104.10;;;42.35;;
36355;SDS011;22384;54.302;18.596;2022-11-20T09:52:35;81.97;;;37.78;;
36355;SDS011;22384;54.302;18.596;2022-11-20T09:55:02;125.85;;;41.80;;
36355;SDS011;22384;54.302;18.596;2022-11-20T09:57:36;126.20;;;46.40;;
36355;SDS011;22384;54.302;18.596;2022-11-20T10:00:04;82.47;;;34.60;;
36355;SDS011;22384;54.302;18.596;2022-11-20T10:02:37;91.90;;;36.92;;
36355;SDS011;22384;54.302;18.596;2022-11-20T10:08:12;108.97;;;37.20;;
36355;SDS011;22384;54.302;18.596;2022-11-20T10:15:46;81.63;;;33.47;;
36355;SDS011;22384;54.302;18.596;2022-11-20T10:26:22;140.55;;;48.45;;
36355;SDS011;22384;54.302;18.596;2022-11-20T10:31:42;130.02;;;49.28;;
36355;SDS011;22384;54.302;18.596;2022-11-20T10:34:15;123.75;;;47.63;;
36355;SDS011;22384;54.302;18.596;2022-11-20T10:36:47;129.82;;;52.15;;
36355;SDS011;22384;54.302;18.596;2022-11-20T10:41:41;85.43;;;38.00;;
36355;SDS011;22384;54.302;18.596;2022-11-20T10:44:21;115.80;;;46.38;;
36355;SDS011;22384;54.302;18.596;2022-11-20T10:47:11;106.38;;;41.33;;
36355;SDS011;22384;54.302;18.596;2022-11-20T10:49:38;118.00;;;51.67;;
36355;SDS011;22384;54.302;18.596;2022-11-20T10:54:48;119.20;;;49.40;;
36355;SDS011;22384;54.302;18.596;2022-11-20T10:57:34;113.72;;;48.92;;
36355;SDS011;22384;54.302;18.596;2022-11-20T11:00:11;98.53;;;41.05;;
36355;SDS011;22384;54.302;18.596;2022-11-20T11:02:43;107.88;;;43.80;;
36355;SDS011;22384;54.302;18.596;2022-11-20T11:07:55;79.57;;;36.67;;
36355;SDS011;22384;54.302;18.596;2022-11-20T11:13:07;89.18;;;40.70;;
36355;SDS011;22384;54.302;18.596;2022-11-20T11:15:37;100.38;;;45.33;;
36355;SDS011;22384;54.302;18.596;2022-11-20T11:18:04;102.95;;;46.05;;
36355;SDS011;22384;54.302;18.596;2022-11-20T11:20:30;85.32;;;38.30;;
36355;SDS011;22384;54.302;18.596;2022-11-20T11:22:58;83.60;;;36.80;;
36355;SDS011;22384;54.302;18.596;2022-11-20T11:25:34;97.47;;;42.03;;
36355;SDS011;22384;54.302;18.596;2022-11-20T11:28:05;85.22;;;38.50;;
36355;SDS011;22384;54.302;18.596;2022-11-20T11:30:40;102.63;;;47.30;;
36355;SDS011;22384;54.302;18.596;2022-11-20T11:33:10;114.55;;;47.80;;
36355;SDS011;22384;54.302;18.596;2022-11-20T11:35:44;112.82;;;48.10;;
36355;SDS011;22384;54.302;18.596;2022-11-20T11:38:12;98.32;;;45.38;;
36355;SDS011;22384;54.302;18.596;2022-11-20T11:40:39;127.25;;;63.08;;
36355;SDS011;22384;54.302;18.596;2022-11-20T11:43:06;129.13;;;58.67;;
36355;SDS011;22384;54.302;18.596;2022-11-20T11:45:53;165.18;;;71.03;;
36355;SDS011;22384;54.302;18.596;2022-11-20T11:48:20;171.38;;;73.13;;
36355;SDS011;22384;54.302;18.596;2022-11-20T11:50:50;162.75;;;67.97;;
36355;SDS011;22384;54.302;18.596;2022-11-20T11:53:20;124.35;;;49.25;;
36355;SDS011;22384;54.302;18.596;2022-11-20T11:55:56;129.48;;;53.58;;
36355;SDS011;22384;54.302;18.596;2022-11-20T12:01:00;114.70;;;52.33;;
36355;SDS011;22384;54.302;18.596;2022-11-20T12:03:35;153.68;;;58.58;;
36355;SDS011;22384;54.302;18.596;2022-11-20T12:06:06;165.02;;;61.78;;
36355;SDS011;22384;54.302;18.596;2022-11-20T12:11:18;150.18;;;66.80;;
36355;SDS011;22384;54.302;18.596;2022-11-20T12:16:17;219.50;;;93.72;;
36355;SDS011;22384;54.302;18.596;2022-11-20T12:18:44;186.15;;;76.28;;
36355;SDS011;22384;54.302;18.596;2022-11-20T12:26:35;152.98;;;66.93;;
36355;SDS011;22384;54.302;18.596;2022-11-20T12:29:09;103.65;;;45.25;;
36355;SDS011;22384;54.302;18.596;2022-11-20T12:31:43;101.72;;;43.28;;
36355;SDS011;22384;54.302;18.596;2022-11-20T12:39:38;119.50;;;49.08;;
36355;SDS011;22384;54.302;18.596;2022-11-20T12:50:34;100.88;;;45.13;;
36355;SDS011;22384;54.302;18.596;2022-11-20T12:53:09;109.68;;;47.13;;
36355;SDS011;22384;54.302;18.596;2022-11-20T12:58:09;86.85;;;39.65;;
36355;SDS011;22384;54.302;18.596;2022-11-20T13:00:37;105.65;;;48.63;;
36355;SDS011;22384;54.302;18.596;2022-11-20T13:05:47;88.60;;;45.50;;
36355;SDS011;22384;54.302;18.596;2022-11-20T13:08:20;104.90;;;48.38;;
36355;SDS011;22384;54.302;18.596;2022-11-20T13:10:50;95.57;;;43.67;;
36355;SDS011;22384;54.302;18.596;2022-11-20T13:13:28;96.78;;;43.83;;
36355;SDS011;22384;54.302;18.596;2022-11-20T13:16:08;105.97;;;47.65;;
36355;SDS011;22384;54.302;18.596;2022-11-20T13:18:39;113.18;;;46.58;;
36355;SDS011;22384;54.302;18.596;2022-11-20T13:21:14;91.25;;;40.50;;
36355;SDS011;22384;54.302;18.596;2022-11-20T13:23:42;106.93;;;44.33;;
36355;SDS011;22384;54.302;18.596;2022-11-20T13:26:15;118.55;;;50.05;;
36355;SDS011;22384;54.302;18.596;2022-11-20T13:28:42;104.60;;;46.60;;
36355;SDS011;22384;54.302;18.596;2022-11-20T13:31:09;126.13;;;50.97;;
36355;SDS011;22384;54.302;18.596;2022-11-20T13:33:37;110.95;;;46.58;;
36355;SDS011;22384;54.302;18.596;2022-11-20T13:36:05;147.75;;;58.67;;
36355;SDS011;22384;54.302;18.596;2022-11-20T13:38:50;139.38;;;58.28;;
36355;SDS011;22384;54.302;18.596;2022-11-20T13:41:27;123.57;;;50.45;;
36355;SDS011;22384;54.302;18.596;2022-11-20T13:43:57;134.95;;;56.15;;
36355;SDS011;22384;54.302;18.596;2022-11-20T13:46:34;113.07;;;47.25;;
36355;SDS011;22384;54.302;18.596;2022-11-20T13:49:05;98.53;;;44.83;;
36355;SDS011;22384;54.302;18.596;2022-11-20T13:54:19;103.10;;;47.72;;
36355;SDS011;22384;54.302;18.596;2022-11-20T13:59:26;100.05;;;43.50;;
36355;SDS011;22384;54.302;18.596;2022-11-20T14:01:56;83.60;;;39.25;;
36355;SDS011;22384;54.302;18.596;2022-11-20T14:04:42;117.53;;;53.58;;
36355;SDS011;22384;54.302;18.596;2022-11-20T14:07:09;84.35;;;40.25;;
36355;SDS011;22384;54.302;18.596;2022-11-20T14:09:35;108.60;;;47.42;;
36355;SDS011;22384;54.302;18.596;2022-11-20T14:12:02;100.80;;;45.13;;
36355;SDS011;22384;54.302;18.596;2022-11-20T14:14:29;83.88;;;40.10;;
36355;SDS011;22384;54.302;18.596;2022-11-20T14:17:07;88.55;;;40.55;;
36355;SDS011;22384;54.302;18.596;2022-11-20T14:19:33;102.72;;;43.63;;
36355;SDS011;22384;54.302;18.596;2022-11-20T14:24:42;93.45;;;43.28;;
36355;SDS011;22384;54.302;18.596;2022-11-20T14:27:18;84.95;;;41.95;;
36355;SDS011;22384;54.302;18.596;2022-11-20T14:29:45;90.78;;;41.03;;
36355;SDS011;22384;54.302;18.596;2022-11-20T14:32:14;90.05;;;42.15;;
36355;SDS011;22384;54.302;18.596;2022-11-20T14:34:43;90.93;;;40.63;;
36355;SDS011;22384;54.302;18.596;2022-11-20T14:37:11;98.97;;;43.28;;
36355;SDS011;22384;54.302;18.596;2022-11-20T14:39:42;100.80;;;44.40;;
36355;SDS011;22384;54.302;18.596;2022-11-20T14:42:14;93.68;;;39.92;;
36355;SDS011;22384;54.302;18.596;2022-11-20T14:44:41;104.78;;;46.25;;
36355;SDS011;22384;54.302;18.596;2022-11-20T14:47:11;90.07;;;40.58;;
36355;SDS011;22384;54.302;18.596;2022-11-20T14:49:38;88.38;;;38.60;;
36355;SDS011;22384;54.302;18.596;2022-11-20T14:52:18;88.80;;;39.45;;
36355;SDS011;22384;54.302;18.596;2022-11-20T14:54:46;87.85;;;39.17;;
36355;SDS011;22384;54.302;18.596;2022-11-20T14:57:22;85.40;;;41.28;;
36355;SDS011;22384;54.302;18.596;2022-11-20T14:59:49;92.10;;;40.70;;
36355;SDS011;22384;54.302;18.596;2022-11-20T15:02:15;89.22;;;39.22;;
36355;SDS011;22384;54.302;18.596;2022-11-20T15:04:48;86.00;;;40.90;;
36355;SDS011;22384;54.302;18.596;2022-11-20T15:07:28;93.22;;;41.22;;
36355;SDS011;22384;54.302;18.596;2022-11-20T15:10:08;84.15;;;39.95;;
36355;SDS011;22384;54.302;18.596;2022-11-20T15:12:46;85.20;;;39.60;;
36355;SDS011;22384;54.302;18.596;2022-11-20T15:15:15;88.40;;;41.63;;
36355;SDS011;22384;54.302;18.596;2022-11-20T15:17:42;83.25;;;41.10;;
36355;SDS011;22384;54.302;18.596;2022-11-20T15:20:11;94.93;;;43.83;;
36355;SDS011;22384;54.302;18.596;2022-11-20T15:22:38;99.32;;;45.17;;
36355;SDS011;22384;54.302;18.596;2022-11-20T15:25:10;96.18;;;44.55;;
36355;SDS011;22384;54.302;18.596;2022-11-20T15:27:37;95.78;;;43.35;;
36355;SDS011;22384;54.302;18.596;2022-11-20T15:30:07;99.13;;;46.80;;
36355;SDS011;22384;54.302;18.596;2022-11-20T15:32:38;114.03;;;50.88;;
36355;SDS011;22384;54.302;18.596;2022-11-20T15:35:04;130.50;;;54.83;;
36355;SDS011;22384;54.302;18.596;2022-11-20T15:37:31;133.93;;;54.85;;
36355;SDS011;22384;54.302;18.596;2022-11-20T15:39:57;169.90;;;64.93;;